Time;durP1;ratioP1;P1;durP2;ratioP2;P2;SDS_P1;SDS_P2;PMS_P1;PMS_P2;Temp;Humidity;BMP_temperature;BMP_pressure;BME280_temperature;BME280_humidity;BME280_pressure;Samples;Min_cycle;Max_cycle;Signal;HPM_P1;HPM_P2
2023/09/06 00:01:43;;;;;;;7.20;5.30;;;20.90;99.90;;;;;;5061695;28;20467;-57
2023/09/06 00:04:10;;;;;;;8.17;5.13;;;20.20;99.90;;;;;;5073789;28;20458;-61
2023/09/06 00:06:37;;;;;;;8.23;5.47;;;20.20;99.90;;;;;;5064635;28;20591;-60
2023/09/06 00:09:05;;;;;;;7.33;5.70;;;20.20;99.90;;;;;;5060824;28;20518;-59
2023/09/06 00:11:33;;;;;;;12.10;5.80;;;20.20;99.90;;;;;;5060362;28;20524;-59
2023/09/06 00:14:03;;;;;;;8.20;5.47;;;20.20;99.90;;;;;;5060474;28;20546;-55
2023/09/06 00:16:30;;;;;;;5.47;4.83;;;20.20;99.90;;;;;;5060471;28;20451;-57
2023/09/06 00:18:59;;;;;;;5.90;4.90;;;20.10;99.90;;;;;;5060645;28;20534;-62
2023/09/06 00:21:26;;;;;;;10.07;5.30;;;20.10;99.90;;;;;;5060433;28;20466;-58
2023/09/06 00:23:55;;;;;;;6.70;5.20;;;20.10;99.90;;;;;;5060498;28;20478;-60
2023/09/06 00:26:22;;;;;;;5.13;4.63;;;20.10;99.90;;;;;;5080686;28;20499;-62
2023/09/06 00:28:57;;;;;;;7.53;6.53;;;20.00;99.90;;;;;;5080753;28;20478;-60
2023/09/06 00:31:26;;;;;;;6.37;4.83;;;20.00;99.90;;;;;;5081648;28;20470;-60
2023/09/06 00:33:52;;;;;;;6.30;5.60;;;20.00;99.90;;;;;;5081082;28;20466;-60
2023/09/06 00:36:19;;;;;;;9.67;3.93;;;19.90;99.90;;;;;;5082389;28;21018;-60
2023/09/06 00:38:46;;;;;;;5.47;4.97;;;19.90;99.90;;;;;;5081153;28;20470;-59
2023/09/06 00:41:13;;;;;;;8.13;4.80;;;19.80;99.90;;;;;;5081601;28;20538;-56
2023/09/06 00:43:40;;;;;;;10.17;5.60;;;19.80;99.90;;;;;;5080761;28;20529;-61
2023/09/06 00:46:08;;;;;;;6.80;5.10;;;19.80;99.90;;;;;;5077337;28;20811;-61
2023/09/06 00:48:37;;;;;;;8.03;5.70;;;19.80;99.90;;;;;;5061049;28;20471;-60
2023/09/06 00:51:07;;;;;;;5.60;4.60;;;19.80;99.90;;;;;;5060455;28;20479;-61
2023/09/06 00:53:34;;;;;;;6.17;4.77;;;19.70;99.90;;;;;;5044758;28;20526;-61
2023/09/06 00:56:04;;;;;;;6.00;5.07;;;19.70;99.90;;;;;;5040863;28;20443;-61
2023/09/06 00:58:33;;;;;;;6.37;5.23;;;19.70;99.90;;;;;;5040874;28;20468;-60
2023/09/06 01:01:00;;;;;;;7.10;5.43;;;18.60;99.90;;;;;;5040744;28;20460;-60
2023/09/06 01:03:27;;;;;;;6.57;5.20;;;19.60;99.90;;;;;;5040537;28;20484;-61
2023/09/06 01:06:04;;;;;;;7.50;5.10;;;19.60;99.90;;;;;;5040564;28;20486;-61
2023/09/06 01:08:36;;;;;;;7.00;4.80;;;19.60;99.90;;;;;;5040606;28;20443;-61
2023/09/06 01:11:18;;;;;;;9.17;5.53;;;19.60;99.90;;;;;;5041204;28;20472;-61
2023/09/06 01:13:47;;;;;;;10.10;5.77;;;19.60;99.90;;;;;;5040262;28;20511;-61
2023/09/06 01:16:16;;;;;;;8.70;5.50;;;19.60;99.90;;;;;;5045765;28;20478;-60
2023/09/06 01:18:43;;;;;;;8.10;5.70;;;19.60;99.90;;;;;;5061055;28;20527;-62
2023/09/06 01:21:14;;;;;;;4.70;4.20;;;19.50;99.90;;;;;;5060519;28;20464;-60
2023/09/06 01:23:44;;;;;;;6.73;5.00;;;19.40;99.90;;;;;;5061426;28;20451;-60
2023/09/06 01:26:14;;;;;;;5.50;4.73;;;19.40;99.90;;;;;;5061135;28;20566;-61
2023/09/06 01:28:41;;;;;;;5.63;5.13;;;19.40;99.90;;;;;;5065539;28;20478;-61
2023/09/06 01:31:08;;;;;;;7.33;5.20;;;19.40;99.90;;;;;;5065679;28;20522;-60
2023/09/06 01:33:35;;;;;;;4.70;4.20;;;19.40;99.90;;;;;;5064687;28;20436;-60
2023/09/06 01:36:02;;;;;;;6.00;5.40;;;19.30;99.90;;;;;;5065221;28;20561;-61
2023/09/06 01:38:32;;;;;;;6.03;4.57;;;19.30;99.90;;;;;;5045086;28;20484;-56
2023/09/06 01:41:02;;;;;;;6.63;5.87;;;19.30;99.90;;;;;;5045207;28;20519;-60
2023/09/06 01:43:31;;;;;;;5.00;4.50;;;19.20;99.90;;;;;;5044811;28;20463;-61
2023/09/06 01:45:58;;;;;;;5.67;5.10;;;19.20;99.90;;;;;;5045025;28;20488;-60
2023/09/06 01:48:25;;;;;;;6.70;4.50;;;19.20;99.90;;;;;;5044957;28;20467;-61
2023/09/06 01:50:55;;;;;;;7.10;5.10;;;19.20;99.90;;;;;;5045317;28;20444;-60
2023/09/06 01:53:23;;;;;;;6.43;4.90;;;19.10;99.90;;;;;;5045299;28;20450;-60
2023/09/06 01:55:51;;;;;;;5.20;4.70;;;19.10;99.90;;;;;;5045324;28;20472;-60
2023/09/06 01:58:20;;;;;;;6.80;5.00;;;19.10;99.90;;;;;;5045761;28;20448;-60
2023/09/06 02:00:47;;;;;;;6.67;5.30;;;19.10;99.90;;;;;;5045372;28;20534;-60
2023/09/06 02:03:16;;;;;;;5.30;4.70;;;19.10;99.90;;;;;;5045692;28;20508;-56
2023/09/06 02:05:43;;;;;;;5.13;4.60;;;19.00;99.90;;;;;;5044908;28;20454;-60
2023/09/06 02:08:13;;;;;;;6.10;4.77;;;19.00;99.90;;;;;;5078710;28;20989;-60
2023/09/06 02:10:40;;;;;;;8.40;5.47;;;19.00;99.90;;;;;;5085837;28;20451;-60
2023/09/06 02:13:13;;;;;;;6.33;5.13;;;19.00;99.90;;;;;;5085077;28;20485;-60
2023/09/06 02:15:42;;;;;;;6.57;5.10;;;18.90;99.90;;;;;;5080433;28;20475;-61
2023/09/06 02:18:10;;;;;;;10.13;5.30;;;18.90;99.90;;;;;;5064328;28;20589;-60
2023/09/06 02:20:40;;;;;;;9.67;5.90;;;18.80;99.90;;;;;;5064860;28;20466;-60
2023/09/06 02:23:07;;;;;;;5.30;4.80;;;18.80;99.90;;;;;;5064822;28;20435;-61
2023/09/06 02:25:34;;;;;;;6.20;5.00;;;18.80;99.90;;;;;;5065028;28;20512;-61
2023/09/06 02:28:04;;;;;;;8.37;5.57;;;18.80;99.90;;;;;;5064551;28;20478;-61
2023/09/06 02:30:31;;;;;;;8.17;5.33;;;18.70;99.90;;;;;;5065170;28;20489;-60
2023/09/06 02:33:00;;;;;;;5.33;4.70;;;18.70;99.90;;;;;;5064307;28;20951;-58
2023/09/06 02:35:27;;;;;;;13.80;5.90;;;18.70;99.90;;;;;;5045145;28;20542;-58
2023/09/06 02:37:54;;;;;;;8.03;6.00;;;18.70;99.90;;;;;;5045463;28;20451;-59
2023/09/06 02:40:20;;;;;;;8.53;4.90;;;18.60;99.90;;;;;;5046785;28;20491;-60
2023/09/06 02:42:51;;;;;;;9.53;5.47;;;18.60;99.90;;;;;;5068868;28;20468;-62
2023/09/06 02:45:18;;;;;;;5.73;4.70;;;18.60;99.90;;;;;;5087478;28;20481;-61
2023/09/06 02:47:48;;;;;;;6.50;4.67;;;18.50;99.90;;;;;;5088058;28;20529;-60
2023/09/06 02:50:18;;;;;;;7.30;4.77;;;18.50;99.90;;;;;;5084595;28;20426;-60
2023/09/06 02:52:50;;;;;;;6.43;5.00;;;18.60;99.90;;;;;;5084239;28;20524;-61
2023/09/06 02:55:19;;;;;;;8.53;5.30;;;18.60;99.90;;;;;;5083926;28;20914;-61
2023/09/06 02:57:46;;;;;;;8.13;5.43;;;18.60;99.90;;;;;;5083744;28;20517;-60
2023/09/06 03:00:24;;;;;;;11.20;5.60;;;18.60;99.90;;;;;;5084335;28;20446;-59
2023/09/06 03:02:52;;;;;;;7.13;5.03;;;18.50;99.90;;;;;;5079584;28;20977;-61
2023/09/06 03:05:21;;;;;;;6.30;4.93;;;18.50;99.90;;;;;;5044133;28;20507;-60
2023/09/06 03:07:49;;;;;;;6.87;5.60;;;18.50;99.90;;;;;;5044927;28;20461;-62
2023/09/06 03:10:19;;;;;;;7.47;4.70;;;18.50;99.90;;;;;;5046981;28;20494;-61
2023/09/06 03:12:47;;;;;;;8.33;5.27;;;18.50;99.90;;;;;;5043636;28;20472;-63
2023/09/06 03:15:15;;;;;;;7.43;5.70;;;18.50;99.90;;;;;;5049100;28;20471;-60
2023/09/06 03:17:46;;;;;;;9.77;6.23;;;18.40;99.90;;;;;;5051858;28;20478;-58
2023/09/06 03:20:20;;;;;;;6.93;5.30;;;18.40;99.90;;;;;;5044543;28;20498;-58
2023/09/06 03:22:50;;;;;;;6.60;5.30;;;18.40;99.90;;;;;;5059536;28;20446;-59
2023/09/06 03:25:17;;;;;;;6.57;5.80;;;18.30;99.90;;;;;;5058154;28;20543;-60
2023/09/06 03:27:45;;;;;;;6.63;5.67;;;18.30;99.90;;;;;;5057499;28;20915;-59
2023/09/06 03:30:15;;;;;;;9.40;5.50;;;18.30;99.90;;;;;;5062618;28;20485;-60
2023/09/06 03:32:48;;;;;;;7.60;4.80;;;18.30;99.90;;;;;;5062015;28;20506;-61
2023/09/06 03:35:16;;;;;;;5.43;4.90;;;18.30;99.90;;;;;;5065283;28;20884;-61
2023/09/06 03:37:43;;;;;;;6.00;5.10;;;18.30;99.90;;;;;;5064856;28;20502;-61
2023/09/06 03:40:25;;;;;;;8.30;6.10;;;18.20;99.90;;;;;;5064389;28;20526;-60
2023/09/06 03:42:56;;;;;;;7.60;4.60;;;18.20;99.90;;;;;;5064662;28;20471;-61
2023/09/06 03:45:29;;;;;;;9.40;6.00;;;18.20;99.90;;;;;;5069912;28;20844;-62
2023/09/06 03:48:04;;;;;;;7.47;5.43;;;18.10;99.90;;;;;;5084740;28;20467;-61
2023/09/06 03:50:32;;;;;;;6.07;5.57;;;18.10;99.90;;;;;;5085397;28;20441;-63
2023/09/06 03:52:58;;;;;;;5.90;5.10;;;18.10;99.90;;;;;;5084289;28;20978;-59
2023/09/06 03:55:27;;;;;;;7.90;6.10;;;18.00;99.90;;;;;;5083869;28;20947;-61
2023/09/06 03:57:53;;;;;;;8.53;5.90;;;18.00;99.90;;;;;;5085120;28;20907;-63
2023/09/06 04:00:30;;;;;;;11.33;5.23;;;18.00;99.90;;;;;;5085198;28;20529;-60
2023/09/06 04:02:57;;;;;;;6.00;4.87;;;18.00;99.90;;;;;;5076249;28;20528;-60
2023/09/06 04:05:27;;;;;;;6.47;5.30;;;17.90;99.90;;;;;;5054944;28;20821;-62
2023/09/06 04:07:56;;;;;;;6.07;5.37;;;17.90;99.90;;;;;;5059347;28;20528;-61
2023/09/06 04:10:23;;;;;;;7.30;5.90;;;18.00;99.90;;;;;;5062301;28;20452;-62
2023/09/06 04:12:53;;;;;;;8.27;4.90;;;18.00;99.90;;;;;;5064725;28;20526;-62
2023/09/06 04:15:22;;;;;;;9.57;6.03;;;17.90;99.90;;;;;;5068974;28;20508;-60
2023/09/06 04:17:52;;;;;;;8.30;5.67;;;17.90;99.90;;;;;;5085112;28;20841;-60
2023/09/06 04:20:23;;;;;;;9.73;5.73;;;17.80;99.90;;;;;;5084887;28;20541;-60
2023/09/06 04:22:51;;;;;;;7.43;5.63;;;17.90;99.90;;;;;;5077917;28;20482;-60
2023/09/06 04:25:19;;;;;;;8.40;5.60;;;17.80;99.90;;;;;;5071342;28;20494;-60
2023/09/06 04:27:46;;;;;;;7.23;5.23;;;17.80;99.90;;;;;;5064472;28;20503;-60
2023/09/06 04:30:17;;;;;;;6.83;4.97;;;17.80;99.90;;;;;;5064535;28;20486;-62
2023/09/06 04:32:45;;;;;;;5.40;4.90;;;17.80;99.90;;;;;;5058646;28;20519;-61
2023/09/06 04:35:14;;;;;;;7.27;5.70;;;17.70;99.90;;;;;;5079051;28;20462;-60
2023/09/06 04:37:41;;;;;;;6.57;5.77;;;17.70;99.90;;;;;;5074596;28;20486;-61
2023/09/06 04:40:12;;;;;;;7.70;5.87;;;17.70;99.90;;;;;;5070138;28;20455;-58
2023/09/06 04:42:42;;;;;;;7.27;5.30;;;17.70;99.90;;;;;;5055430;28;20451;-63
2023/09/06 04:45:12;;;;;;;11.53;5.97;;;18.10;99.90;;;;;;5052639;28;20500;-55
2023/09/06 04:47:43;;;;;;;7.30;6.00;;;17.70;99.90;;;;;;5060725;28;20498;-60
2023/09/06 04:50:11;;;;;;;6.80;6.00;;;17.70;99.90;;;;;;5058009;28;20485;-61
2023/09/06 04:52:43;;;;;;;6.97;4.80;;;18.70;99.90;;;;;;5058578;28;20490;-62
2023/09/06 04:55:12;;;;;;;8.30;6.40;;;17.70;99.90;;;;;;5064188;28;20451;-58
2023/09/06 04:57:39;;;;;;;7.07;6.10;;;17.70;99.90;;;;;;5071708;28;20438;-61
2023/09/06 05:00:16;;;;;;;6.40;5.10;;;17.70;99.90;;;;;;5058752;28;20467;-59
2023/09/06 05:02:45;;;;;;;13.57;7.43;;;17.70;99.90;;;;;;5061618;28;20462;-61
2023/09/06 05:05:13;;;;;;;6.50;5.90;;;17.70;99.90;;;;;;5062546;28;20452;-60
2023/09/06 05:07:40;;;;;;;10.50;6.70;;;17.70;99.90;;;;;;5052779;28;20451;-59
2023/09/06 05:10:09;;;;;;;6.77;5.97;;;17.60;99.90;;;;;;5056430;28;20476;-62
2023/09/06 05:12:36;;;;;;;9.57;6.50;;;17.70;99.90;;;;;;5054260;28;20513;-62
2023/09/06 05:15:03;;;;;;;7.13;6.17;;;17.70;99.90;;;;;;5060692;28;20474;-60
2023/09/06 05:17:30;;;;;;;10.63;6.47;;;17.70;99.90;;;;;;5065674;28;20521;-62
2023/09/06 05:20:28;;;;;;;9.23;6.00;;;17.70;99.90;;;;;;5055703;28;20540;-62
2023/09/06 05:22:57;;;;;;;9.33;6.83;;;17.70;99.90;;;;;;5053915;28;20845;-62
2023/09/06 05:25:26;;;;;;;7.43;6.47;;;17.70;99.90;;;;;;5058389;28;20912;-60
2023/09/06 05:27:58;;;;;;;8.73;6.50;;;17.80;99.90;;;;;;5057342;28;20477;-62
2023/09/06 05:30:25;;;;;;;7.30;4.80;;;17.80;99.90;;;;;;5058902;28;20434;-61
2023/09/06 05:32:52;;;;;;;10.67;6.63;;;17.80;99.90;;;;;;5057654;28;20510;-59
2023/09/06 05:35:19;;;;;;;10.63;5.90;;;17.90;99.90;;;;;;5058401;28;20618;-64
2023/09/06 05:37:48;;;;;;;11.00;7.80;;;17.90;99.90;;;;;;5058495;28;20459;-62
2023/09/06 05:40:16;;;;;;;7.60;5.63;;;17.90;99.90;;;;;;5058472;28;20471;-61
2023/09/06 05:42:43;;;;;;;9.07;7.00;;;17.90;99.90;;;;;;5058171;28;20510;-62
2023/09/06 05:45:11;;;;;;;6.60;5.30;;;18.00;99.90;;;;;;5058546;28;20463;-62
2023/09/06 05:47:41;;;;;;;8.20;5.60;;;18.00;99.90;;;;;;5058041;28;20542;-59
2023/09/06 05:50:08;;;;;;;8.47;6.33;;;18.10;99.90;;;;;;5058096;28;20474;-61
2023/09/06 05:52:35;;;;;;;9.33;6.83;;;18.10;99.90;;;;;;5057039;28;20493;-62
2023/09/06 05:55:04;;;;;;;10.53;6.97;;;18.20;99.90;;;;;;5038475;28;20944;-61
2023/09/06 05:57:32;;;;;;;11.90;6.60;;;18.20;99.90;;;;;;5038620;28;20606;-64
2023/09/06 05:59:59;;;;;;;8.73;6.37;;;18.20;99.90;;;;;;5038192;28;20911;-60
2023/09/06 06:02:26;;;;;;;6.97;6.30;;;18.30;99.90;;;;;;5038392;28;20483;-61
2023/09/06 06:04:55;;;;;;;10.50;6.47;;;18.30;99.90;;;;;;5038166;28;20566;-61
2023/09/06 06:07:22;;;;;;;7.87;6.47;;;18.40;99.90;;;;;;5049055;28;20454;-61
2023/09/06 06:09:49;;;;;;;10.77;7.77;;;18.40;99.90;;;;;;5050964;28;20546;-62
2023/09/06 06:12:22;;;;;;;9.37;5.77;;;18.50;99.90;;;;;;5049638;28;20763;-59
2023/09/06 06:14:50;;;;;;;8.93;7.23;;;18.50;99.90;;;;;;5052001;28;20439;-61
2023/09/06 06:17:17;;;;;;;8.13;6.87;;;18.60;99.90;;;;;;5050681;28;20496;-61
2023/09/06 06:19:46;;;;;;;8.93;7.10;;;18.60;99.90;;;;;;5049651;28;20753;-61
2023/09/06 06:22:15;;;;;;;9.40;6.53;;;18.70;99.90;;;;;;5050444;28;20460;-62
2023/09/06 06:24:43;;;;;;;9.60;5.63;;;18.70;99.90;;;;;;5055264;28;20522;-61
2023/09/06 06:27:10;;;;;;;11.30;6.80;;;18.80;99.90;;;;;;5051319;28;20527;-61
2023/09/06 06:29:40;;;;;;;8.93;6.40;;;18.90;99.90;;;;;;5048656;28;20499;-61
2023/09/06 06:32:07;;;;;;;9.40;7.00;;;18.90;99.90;;;;;;5050276;28;20522;-60
2023/09/06 06:34:38;;;;;;;12.10;6.83;;;19.00;99.90;;;;;;5043545;28;20507;-62
2023/09/06 06:37:05;;;;;;;9.90;6.90;;;19.00;99.90;;;;;;5053765;28;20893;-61
2023/09/06 06:39:32;;;;;;;8.83;7.13;;;19.00;99.90;;;;;;5050638;28;20444;-61
2023/09/06 06:41:59;;;;;;;13.90;7.00;;;19.10;99.90;;;;;;5049236;28;20463;-61
2023/09/06 06:44:26;;;;;;;8.90;7.33;;;19.10;99.90;;;;;;5052194;28;20470;-61
2023/09/06 06:46:54;;;;;;;13.00;7.73;;;19.20;99.90;;;;;;5052758;28;20728;-62
2023/09/06 06:49:21;;;;;;;8.53;7.33;;;19.30;99.90;;;;;;5048622;28;20440;-60
2023/09/06 06:51:48;;;;;;;7.40;6.40;;;19.30;99.90;;;;;;5041049;28;20531;-63
2023/09/06 06:54:17;;;;;;;16.90;7.17;;;19.40;99.90;;;;;;5040983;28;20491;-61
2023/09/06 06:56:44;;;;;;;8.33;6.70;;;19.50;99.90;;;;;;5040497;28;20452;-60
2023/09/06 06:59:12;;;;;;;11.97;8.20;;;19.60;99.90;;;;;;5053712;28;20474;-62
2023/09/06 07:01:38;;;;;;;16.30;9.33;;;19.60;99.90;;;;;;5048835;28;20453;-62
2023/09/06 07:04:07;;;;;;;11.87;7.70;;;19.80;99.90;;;;;;5046538;28;20472;-62
2023/09/06 07:06:36;;;;;;;9.83;7.67;;;19.90;99.90;;;;;;5042646;28;20456;-59
2023/09/06 07:09:04;;;;;;;14.50;7.20;;;19.90;99.90;;;;;;5056578;28;20467;-60
2023/09/06 07:11:31;;;;;;;11.07;7.87;;;20.00;99.90;;;;;;5050456;28;20526;-60
2023/09/06 07:13:58;;;;;;;13.57;8.43;;;20.10;99.90;;;;;;5057038;28;20480;-54
2023/09/06 07:16:25;;;;;;;11.40;8.37;;;20.20;99.90;;;;;;5060559;28;20571;-62
2023/09/06 07:18:55;;;;;;;8.77;6.93;;;20.20;99.90;;;;;;5063645;28;20475;-62
2023/09/06 07:21:24;;;;;;;10.20;6.67;;;20.30;99.90;;;;;;5062849;28;20498;-58
2023/09/06 07:23:51;;;;;;;8.43;6.87;;;20.40;99.90;;;;;;5068295;28;20450;-62
2023/09/06 07:26:18;;;;;;;8.73;7.83;;;20.50;99.90;;;;;;5081103;28;20849;-60
2023/09/06 07:28:47;;;;;;;13.27;7.13;;;20.50;99.90;;;;;;5073882;28;20509;-61
2023/09/06 07:31:15;;;;;;;12.70;7.23;;;20.60;99.90;;;;;;5063981;28;20534;-60
2023/09/06 07:33:42;;;;;;;11.33;8.53;;;20.70;99.90;;;;;;5061264;28;20520;-60
2023/09/06 07:36:10;;;;;;;7.93;6.97;;;20.80;99.90;;;;;;5062621;28;20459;-61
2023/09/06 07:38:41;;;;;;;7.43;6.53;;;20.90;99.90;;;;;;5054588;28;20760;-60
2023/09/06 07:41:09;;;;;;;8.10;6.93;;;21.00;99.90;;;;;;5066389;28;20921;-62
2023/09/06 07:43:37;;;;;;;12.63;7.17;;;21.10;99.90;;;;;;5079572;28;20514;-62
2023/09/06 07:46:12;;;;;;;7.93;7.10;;;21.20;99.90;;;;;;5079239;28;20513;-61
2023/09/06 07:48:39;;;;;;;8.53;6.60;;;21.30;99.90;;;;;;5071016;28;20924;-65
2023/09/06 07:51:06;;;;;;;11.27;6.60;;;21.50;99.90;;;;;;5049926;28;20459;-62
2023/09/06 07:53:34;;;;;;;9.30;6.70;;;21.50;99.90;;;;;;5050098;28;20506;-62
2023/09/06 07:56:05;;;;;;;8.63;6.63;;;21.60;99.90;;;;;;5052483;28;20465;-62
2023/09/06 07:58:32;;;;;;;8.70;6.40;;;21.80;99.90;;;;;;5049228;28;20513;-61
2023/09/06 08:00:59;;;;;;;8.43;6.80;;;21.90;99.90;;;;;;5042876;28;20483;-61
2023/09/06 08:03:26;;;;;;;6.97;6.27;;;22.10;99.90;;;;;;5045042;28;20493;-60
2023/09/06 08:05:54;;;;;;;8.87;7.93;;;22.30;99.90;;;;;;5050350;28;20458;-61
2023/09/06 08:08:21;;;;;;;9.10;6.67;;;22.60;99.90;;;;;;5055176;28;20468;-60
2023/09/06 08:10:48;;;;;;;6.80;6.00;;;23.50;99.90;;;;;;5052728;28;20485;-62
2023/09/06 08:13:16;;;;;;;10.67;7.67;;;25.30;99.90;;;;;;5052931;28;20483;-59
2023/09/06 08:15:44;;;;;;;16.13;9.00;;;27.40;99.90;;;;;;5066278;28;20443;-61
2023/09/06 08:18:12;;;;;;;11.77;9.00;;;29.70;99.90;;;;;;5076064;28;20533;-61
2023/09/06 08:20:39;;;;;;;10.07;7.87;;;31.80;96.50;;;;;;5076864;28;20965;-58
2023/09/06 08:23:06;;;;;;;17.53;9.00;;;33.20;86.20;;;;;;5077413;28;20515;-61
2023/09/06 08:25:35;;;;;;;12.17;7.30;;;34.50;74.80;;;;;;5077518;28;21015;-61
2023/09/06 08:28:02;;;;;;;8.03;7.20;;;35.80;68.40;;;;;;5064288;28;20502;-61
2023/09/06 08:30:30;;;;;;;11.23;7.00;;;37.10;61.10;;;;;;5056584;28;20486;-58
2023/09/06 08:32:57;;;;;;;11.30;9.07;;;37.90;57.30;;;;;;5057617;28;20447;-61
2023/09/06 08:35:25;;;;;;;9.00;7.97;;;38.50;54.90;;;;;;5056925;28;20451;-63
2023/09/06 08:37:52;;;;;;;11.00;9.03;;;38.60;53.50;;;;;;5057032;28;20541;-61
2023/09/06 08:40:21;;;;;;;10.93;7.40;;;38.50;52.30;;;;;;5055469;28;20447;-58
2023/09/06 08:42:49;;;;;;;8.30;7.30;;;38.20;52.60;;;;;;5056092;28;20963;-61
2023/09/06 08:45:21;;;;;;;8.20;6.80;;;38.20;51.40;;;;;;5056472;28;20463;-61
2023/09/06 08:47:50;;;;;;;8.00;7.13;;;38.30;50.50;;;;;;5076586;28;20701;-63
2023/09/06 08:50:17;;;;;;;9.13;7.10;;;38.30;50.70;;;;;;5075977;28;20832;-60
2023/09/06 08:52:45;;;;;;;9.73;6.97;;;38.20;50.50;;;;;;5076047;28;20924;-62
2023/09/06 08:55:12;;;;;;;11.53;7.37;;;38.40;49.80;;;;;;5076316;28;20517;-61
2023/09/06 08:57:40;;;;;;;10.67;6.27;;;38.40;49.30;;;;;;5075632;28;20438;-60
2023/09/06 09:00:09;;;;;;;9.70;6.70;;;38.20;49.60;;;;;;5075697;28;20438;-60
2023/09/06 09:02:37;;;;;;;8.63;7.03;;;38.00;49.80;;;;;;5073813;28;20523;-61
2023/09/06 09:05:06;;;;;;;7.10;6.20;;;37.90;49.70;;;;;;5055859;28;20530;-62
2023/09/06 09:07:33;;;;;;;13.90;7.00;;;38.00;50.10;;;;;;5055470;28;20527;-60
2023/09/06 09:10:04;;;;;;;12.70;6.73;;;37.80;50.60;;;;;;5069089;28;20519;-60
2023/09/06 09:12:32;;;;;;;6.97;6.00;;;37.30;51.00;;;;;;5075379;28;20438;-62
2023/09/06 09:14:59;;;;;;;7.77;6.80;;;37.20;50.20;;;;;;5075813;28;20942;-61
2023/09/06 09:17:27;;;;;;;9.73;6.00;;;37.10;50.30;;;;;;5077176;28;20507;-62
2023/09/06 09:19:56;;;;;;;10.97;5.57;;;37.10;50.20;;;;;;5066816;28;20474;-59
2023/09/06 09:22:25;;;;;;;6.03;5.43;;;37.30;50.60;;;;;;5057400;28;20501;-61
2023/09/06 09:24:58;;;;;;;5.73;5.20;;;37.30;49.40;;;;;;5057442;28;20512;-62
2023/09/06 09:27:28;;;;;;;7.33;6.17;;;37.30;50.40;;;;;;5057015;28;20486;-62
2023/09/06 09:29:55;;;;;;;6.43;5.80;;;37.30;50.00;;;;;;5057570;28;20449;-62
2023/09/06 09:32:22;;;;;;;8.83;6.90;;;37.20;50.20;;;;;;5055745;28;20453;-60
2023/09/06 09:34:52;;;;;;;11.20;6.30;;;37.30;51.10;;;;;;5054518;28;20470;-61
2023/09/06 09:37:19;;;;;;;7.57;6.87;;;37.30;50.70;;;;;;5054583;28;20455;-62
2023/09/06 09:39:47;;;;;;;7.03;5.53;;;37.40;50.50;;;;;;5055089;28;20523;-63
2023/09/06 09:42:15;;;;;;;13.73;6.60;;;37.50;48.70;;;;;;5055246;28;20570;-62
2023/09/06 09:44:42;;;;;;;6.60;5.60;;;37.60;49.60;;;;;;5055177;28;20490;-62
2023/09/06 09:47:11;;;;;;;4.53;4.13;;;37.80;47.90;;;;;;5055544;28;20443;-62
2023/09/06 09:49:41;;;;;;;4.70;4.20;;;38.10;47.10;;;;;;5059095;28;20508;-59
2023/09/06 09:52:10;;;;;;;6.40;5.80;;;38.20;46.20;;;;;;5074825;28;20920;-62
2023/09/06 09:54:40;;;;;;;6.27;4.97;;;38.20;46.70;;;;;;5079440;28;20482;-58
2023/09/06 09:57:09;;;;;;;10.00;6.90;;;38.20;46.60;;;;;;5080806;28;20466;-61
2023/09/06 09:59:38;;;;;;;5.57;4.87;;;38.10;47.00;;;;;;5078828;28;20513;-63
2023/09/06 10:02:06;;;;;;;6.87;5.70;;;37.80;46.70;;;;;;5078956;28;20473;-62
2023/09/06 10:04:36;;;;;;;6.10;5.50;;;38.10;47.00;;;;;;5078445;28;20569;-62
2023/09/06 10:07:06;;;;;;;6.73;4.83;;;37.40;47.50;;;;;;5078682;28;20438;-61
2023/09/06 10:09:38;;;;;;;6.00;5.50;;;37.30;47.60;;;;;;5078316;28;20517;-63
2023/09/06 10:12:08;;;;;;;7.17;6.43;;;37.30;47.80;;;;;;5078719;28;20429;-61
2023/09/06 10:14:39;;;;;;;13.80;7.07;;;37.20;48.50;;;;;;5082431;28;20478;-62
2023/09/06 10:17:08;;;;;;;11.00;7.80;;;37.10;48.50;;;;;;5078631;28;20515;-59
2023/09/06 10:19:35;;;;;;;8.10;6.50;;;37.00;48.30;;;;;;5078315;28;20442;-63
2023/09/06 10:22:03;;;;;;;6.43;5.80;;;36.90;48.50;;;;;;5063295;28;20513;-63
2023/09/06 10:24:34;;;;;;;5.83;5.23;;;36.70;47.10;;;;;;5058255;28;20479;-59
2023/09/06 10:27:02;;;;;;;7.57;6.03;;;36.70;48.30;;;;;;5057954;28;20490;-61
2023/09/06 10:29:32;;;;;;;8.30;7.50;;;36.50;48.80;;;;;;5054398;28;20463;-62
2023/09/06 10:32:04;;;;;;;6.70;5.57;;;36.30;49.20;;;;;;5053320;28;20447;-63
2023/09/06 10:34:36;;;;;;;10.43;5.73;;;36.10;49.00;;;;;;5051207;28;20479;-63
2023/09/06 10:37:06;;;;;;;5.70;5.20;;;35.90;49.80;;;;;;5052435;28;20431;-65
2023/09/06 10:39:33;;;;;;;6.43;5.83;;;35.80;50.20;;;;;;5057283;28;20455;-64
2023/09/06 10:42:18;;;;;;;5.40;4.90;;;35.60;50.80;;;;;;5056094;28;20538;-60
2023/09/06 10:45:15;;;;;;;5.83;5.03;;;35.30;50.00;;;;;;5057116;28;20481;-63
2023/09/06 10:47:42;;;;;;;6.90;5.40;;;35.00;50.10;;;;;;5056553;28;20439;-62
2023/09/06 10:50:12;;;;;;;9.00;5.47;;;33.40;50.80;;;;;;5037261;28;20436;-64
2023/09/06 10:52:44;;;;;;;5.00;4.50;;;34.50;51.70;;;;;;5037170;28;20468;-62
2023/09/06 10:55:13;;;;;;;9.07;5.90;;;34.20;52.50;;;;;;5037228;28;21013;-60
2023/09/06 10:57:55;;;;;;;8.47;6.50;;;34.00;54.10;;;;;;5037438;28;20451;-62
2023/09/06 11:00:30;;;;;;;7.40;6.70;;;33.80;53.30;;;;;;5036565;28;20450;-62
2023/09/06 11:03:19;;;;;;;6.83;5.40;;;33.60;54.60;;;;;;5037623;28;20504;-62
2023/09/06 11:05:52;;;;;;;9.00;6.30;;;33.40;53.80;;;;;;5037438;28;20502;-63
2023/09/06 11:08:25;;;;;;;9.20;6.90;;;33.20;55.20;;;;;;5037544;28;20424;-62
2023/09/06 11:10:53;;;;;;;6.77;5.67;;;33.10;55.20;;;;;;5037489;28;20567;-61
2023/09/06 11:13:22;;;;;;;7.20;5.70;;;32.80;56.00;;;;;;5037491;28;20452;-62
2023/09/06 11:15:51;;;;;;;8.00;6.97;;;32.70;54.00;;;;;;5037439;28;20529;-62
2023/09/06 11:18:18;;;;;;;7.43;5.97;;;32.60;53.90;;;;;;5037497;28;20743;-60
2023/09/06 11:20:49;;;;;;;7.33;6.20;;;32.50;55.10;;;;;;5042539;28;20856;-61
2023/09/06 11:23:17;;;;;;;5.50;5.00;;;32.20;55.00;;;;;;5058032;28;20478;-62
2023/09/06 11:25:45;;;;;;;6.27;5.37;;;31.90;53.80;;;;;;5058167;28;20435;-62
2023/09/06 11:28:19;;;;;;;8.67;5.90;;;31.80;56.00;;;;;;5057722;28;20474;-63
2023/09/06 11:30:47;;;;;;;6.20;5.30;;;31.80;55.10;;;;;;5057638;28;20550;-58
2023/09/06 11:33:17;;;;;;;8.53;5.00;;;31.60;56.30;;;;;;5057758;28;20439;-64
2023/09/06 11:35:51;;;;;;;5.80;4.73;;;31.30;57.40;;;;;;5056096;28;20634;-62
2023/09/06 11:38:21;;;;;;;5.87;5.17;;;31.20;56.60;;;;;;5056534;28;20480;-66
2023/09/06 11:40:48;;;;;;;8.07;5.57;;;31.10;56.40;;;;;;5056567;28;20455;-63
2023/09/06 11:43:17;;;;;;;8.07;5.13;;;31.00;58.20;;;;;;5057180;28;21024;-63
2023/09/06 11:45:46;;;;;;;7.30;5.10;;;30.80;57.10;;;;;;5057571;28;21052;-62
2023/09/06 11:48:19;;;;;;;6.40;5.13;;;30.70;58.00;;;;;;5057059;28;21008;-58
2023/09/06 11:50:52;;;;;;;7.33;5.30;;;30.60;57.70;;;;;;5057615;28;20431;-63
2023/09/06 11:53:19;;;;;;;6.47;5.23;;;30.50;57.30;;;;;;5057208;28;20521;-61
2023/09/06 11:55:49;;;;;;;5.17;4.67;;;30.40;58.30;;;;;;5057527;28;20566;-60
2023/09/06 11:58:16;;;;;;;5.90;5.30;;;30.40;57.50;;;;;;5057370;28;20447;-62
2023/09/06 12:00:50;;;;;;;9.23;5.77;;;30.30;58.00;;;;;;5057430;28;20443;-59
2023/09/06 12:03:19;;;;;;;11.43;6.43;;;30.30;58.60;;;;;;5057601;28;20550;-63
2023/09/06 12:05:48;;;;;;;5.53;4.90;;;30.20;58.80;;;;;;5057357;28;20502;-62
2023/09/06 12:08:19;;;;;;;6.03;5.43;;;30.30;59.00;;;;;;5057335;28;20961;-62
2023/09/06 12:10:54;;;;;;;6.37;5.43;;;30.20;59.30;;;;;;5056299;28;20454;-63
2023/09/06 12:13:26;;;;;;;6.30;5.37;;;30.20;58.80;;;;;;5058823;28;20447;-62
2023/09/06 12:15:53;;;;;;;6.40;5.07;;;30.20;58.40;;;;;;5058449;28;20467;-63
2023/09/06 12:18:20;;;;;;;6.10;4.60;;;30.20;58.00;;;;;;5058349;28;20837;-62
2023/09/06 12:20:48;;;;;;;6.00;4.70;;;30.20;57.80;;;;;;5058735;28;20492;-62
2023/09/06 12:23:15;;;;;;;5.67;5.07;;;30.20;56.40;;;;;;5058555;28;20443;-61
2023/09/06 12:25:42;;;;;;;4.50;4.10;;;30.20;58.00;;;;;;5058490;28;20560;-62
2023/09/06 12:28:09;;;;;;;4.50;4.10;;;30.20;56.40;;;;;;5058415;28;20443;-63
2023/09/06 12:30:36;;;;;;;5.80;4.50;;;30.20;56.20;;;;;;5061928;28;20554;-61
2023/09/06 12:33:03;;;;;;;4.90;4.43;;;30.20;56.20;;;;;;5058675;28;20939;-65
2023/09/06 12:35:35;;;;;;;7.30;3.70;;;30.20;56.10;;;;;;5058253;28;20490;-62
2023/09/06 12:38:04;;;;;;;6.10;3.77;;;30.10;55.70;;;;;;5058232;28;20455;-60
2023/09/06 12:40:31;;;;;;;4.60;4.20;;;30.10;56.00;;;;;;5058401;28;20541;-63
2023/09/06 12:42:58;;;;;;;8.73;5.50;;;30.20;55.90;;;;;;5058051;28;20467;-62
2023/09/06 12:45:29;;;;;;;9.90;4.60;;;30.20;56.60;;;;;;5049448;28;20452;-64
2023/09/06 12:47:57;;;;;;;4.80;4.30;;;30.20;55.20;;;;;;5038503;28;20433;-63
2023/09/06 12:50:25;;;;;;;11.03;6.07;;;30.30;55.80;;;;;;5038306;28;20437;-62
2023/09/06 12:52:53;;;;;;;5.77;5.17;;;30.40;56.70;;;;;;5041313;28;20597;-61
2023/09/06 12:55:22;;;;;;;6.30;5.00;;;30.20;54.90;;;;;;5057909;28;20540;-63